Time;durP1;ratioP1;P1;durP2;ratioP2;P2;SDS_P1;SDS_P2;PMS_P1;PMS_P2;Temp;Humidity;BMP_temperature;BMP_pressure;BME280_temperature;BME280_humidity;BME280_pressure;Samples;Min_cycle;Max_cycle;Signal;HPM_P1;HPM_P2
2023/12/31 00:01:54;;;;;;;10.75;3.17;;;;;;;6.48;88.49;97190.72;4975999;28;20054;-49
2023/12/31 00:04:22;;;;;;;11.70;2.45;;;;;;;6.45;88.59;97188.75;4982654;28;20054;-52
2023/12/31 00:06:51;;;;;;;12.02;3.35;;;;;;;6.43;89.00;97195.84;4990569;28;20050;-51
2023/12/31 00:09:18;;;;;;;11.32;2.83;;;;;;;6.41;88.85;97195.44;4989581;28;20050;-49
2023/12/31 00:11:45;;;;;;;13.57;3.65;;;;;;;6.39;89.10;97186.84;4979670;28;20512;-48
2023/12/31 00:14:13;;;;;;;8.77;2.40;;;;;;;6.38;89.04;97174.31;4990416;28;20051;-52
2023/12/31 00:16:40;;;;;;;11.48;1.95;;;;;;;6.37;89.17;97176.25;4990229;28;20053;-49
2023/12/31 00:19:07;;;;;;;7.20;2.95;;;;;;;6.37;89.08;97173.53;4988981;28;20419;-51
2023/12/31 00:21:35;;;;;;;5.50;1.73;;;;;;;6.40;88.91;97166.44;4978291;28;20054;-47
2023/12/31 00:24:02;;;;;;;10.13;2.85;;;;;;;6.39;88.88;97165.66;4988667;28;20057;-53
2023/12/31 00:26:30;;;;;;;8.57;1.73;;;;;;;6.38;88.77;97158.56;4978852;28;20057;-48
2023/12/31 00:28:57;;;;;;;9.55;2.28;;;;;;;6.38;88.70;97157.81;4989025;28;20412;-51
2023/12/31 00:31:24;;;;;;;11.88;2.25;;;;;;;6.40;88.94;97141.69;4989802;28;20046;-48
2023/12/31 00:33:56;;;;;;;5.63;1.70;;;;;;;6.38;88.72;97138.59;4976097;28;20051;-49
2023/12/31 00:36:25;;;;;;;9.85;2.20;;;;;;;6.36;88.71;97147.22;4989838;28;20519;-53
2023/12/31 00:38:53;;;;;;;7.65;1.40;;;;;;;6.35;88.74;97142.13;4985943;28;20050;-49
2023/12/31 00:41:21;;;;;;;9.38;2.53;;;;;;;6.36;88.72;97155.47;4980008;28;20039;-52
2023/12/31 00:43:49;;;;;;;8.52;1.58;;;;;;;6.38;88.64;97133.09;4986245;28;20405;-48
2023/12/31 00:46:16;;;;;;;6.50;1.67;;;;;;;6.42;88.57;97137.38;4970181;28;20050;-49
2023/12/31 00:48:44;;;;;;;4.80;1.80;;;;;;;6.41;88.19;97126.75;4970780;28;20046;-52
2023/12/31 00:51:11;;;;;;;13.68;1.95;;;;;;;6.45;88.24;97142.06;4981108;28;20417;-48
2023/12/31 00:53:39;;;;;;;8.70;1.98;;;;;;;6.46;88.30;97142.84;4985324;28;20046;-53
2023/12/31 00:56:08;;;;;;;9.02;2.28;;;;;;;6.42;88.23;97098.91;4970122;28;20050;-50
2023/12/31 00:58:36;;;;;;;7.80;3.30;;;;;;;6.42;88.24;97109.88;4987489;28;20042;-51
2023/12/31 01:01:04;;;;;;;8.15;1.50;;;;;;;6.42;87.87;97128.34;4989039;28;20054;-50
2023/12/31 01:03:33;;;;;;;12.82;3.08;;;;;;;6.42;87.80;97098.91;4983539;28;20049;-50
2023/12/31 01:06:07;;;;;;;4.43;1.23;;;;;;;6.46;87.99;97112.63;4982713;28;20045;-49
2023/12/31 01:08:35;;;;;;;8.23;1.60;;;;;;;6.46;87.82;97112.63;4989043;28;20054;-52
2023/12/31 01:11:07;;;;;;;10.55;1.15;;;;;;;6.43;87.75;97102.44;4989159;28;20406;-49
2023/12/31 01:13:34;;;;;;;7.55;1.40;;;;;;;6.41;87.59;97102.03;4989023;28;20412;-49
2023/12/31 01:16:01;;;;;;;5.30;1.08;;;;;;;6.38;87.82;97095.38;4985679;28;20042;-51
2023/12/31 01:18:29;;;;;;;5.75;1.67;;;;;;;6.39;87.70;97076.94;4978910;28;20513;-49
2023/12/31 01:20:57;;;;;;;4.82;1.50;;;;;;;6.40;87.73;97068.31;4973196;28;20098;-52
2023/12/31 01:23:26;;;;;;;7.05;2.63;;;;;;;6.43;87.53;97066.72;4969342;28;20054;-52
2023/12/31 01:25:54;;;;;;;6.82;1.60;;;;;;;6.45;87.32;97069.84;4985413;28;20051;-54
2023/12/31 01:28:21;;;;;;;8.50;1.88;;;;;;;6.44;87.23;97052.56;4988727;28;20050;-50
2023/12/31 01:30:49;;;;;;;11.20;2.80;;;;;;;6.42;87.29;97054.16;4971776;28;20035;-53
2023/12/31 01:33:16;;;;;;;11.52;2.25;;;;;;;6.41;87.33;97042.38;4969439;28;20627;-53
2023/12/31 01:35:43;;;;;;;10.43;2.08;;;;;;;6.38;87.52;97039.69;4986440;28;20034;-52
2023/12/31 01:38:11;;;;;;;12.68;1.98;;;;;;;6.37;87.55;97047.16;4988448;28;20054;-52
2023/12/31 01:40:38;;;;;;;10.93;2.33;;;;;;;6.34;87.59;97031.47;4987485;28;20663;-53
2023/12/31 01:43:05;;;;;;;10.95;1.60;;;;;;;6.33;87.52;97027.16;4988717;28;20131;-49
2023/12/31 01:45:33;;;;;;;9.25;1.73;;;;;;;6.35;87.50;97027.56;4983913;28;20050;-46
2023/12/31 01:48:00;;;;;;;15.43;3.25;;;;;;;6.33;87.42;97029.91;4979799;28;20050;-54
2023/12/31 01:50:28;;;;;;;9.23;2.13;;;;;;;6.33;87.52;97029.91;4988458;28;20042;-50
2023/12/31 01:52:56;;;;;;;16.75;2.70;;;;;;;6.33;87.51;97029.91;4988123;28;20050;-49
2023/12/31 01:55:23;;;;;;;16.52;3.10;;;;;;;6.31;87.70;97032.28;4975468;28;20054;-47
2023/12/31 01:57:51;;;;;;;22.27;4.07;;;;;;;6.33;87.77;97027.16;4988192;28;20131;-51
2023/12/31 02:00:19;;;;;;;10.57;2.47;;;;;;;6.34;87.85;97009.50;4987837;28;20054;-51
2023/12/31 02:02:48;;;;;;;12.50;2.05;;;;;;;6.39;87.95;97033.78;4988110;28;20058;-49
2023/12/31 02:05:16;;;;;;;11.43;2.25;;;;;;;6.41;87.88;97025.91;4975555;28;20077;-52
2023/12/31 02:07:43;;;;;;;10.30;2.13;;;;;;;6.42;87.99;97016.47;4987645;28;20054;-52
2023/12/31 02:10:11;;;;;;;11.32;1.98;;;;;;;6.43;88.03;97017.25;4988254;28;20476;-51
2023/12/31 02:12:39;;;;;;;7.78;2.08;;;;;;;6.42;87.88;97005.50;4987867;28;20085;-50
2023/12/31 02:15:08;;;;;;;12.05;2.42;;;;;;;6.41;87.89;97006.66;4988316;28;20055;-48
2023/12/31 02:17:36;;;;;;;16.63;2.85;;;;;;;6.42;88.02;97000.00;4987868;28;20496;-49
2023/12/31 02:20:04;;;;;;;22.38;5.07;;;;;;;6.46;88.08;97014.47;4979773;28;20236;-50
2023/12/31 02:22:32;;;;;;;10.75;2.55;;;;;;;6.49;87.96;97008.16;4968403;28;20047;-53
2023/12/31 02:25:05;;;;;;;10.90;3.47;;;;;;;6.51;88.32;97014.00;4968842;28;20051;-52
2023/12/31 02:27:33;;;;;;;4.40;1.40;;;;;;;6.54;88.23;97001.44;4975943;28;20050;-48
2023/12/31 02:30:00;;;;;;;8.13;1.95;;;;;;;6.57;88.16;97000.59;4991364;28;20057;-53
2023/12/31 02:32:28;;;;;;;10.43;1.90;;;;;;;6.57;88.22;96984.91;4978543;28;20051;-50
2023/12/31 02:34:55;;;;;;;5.10;1.58;;;;;;;6.61;88.25;96984.88;4991615;28;20054;-54
2023/12/31 02:37:22;;;;;;;7.45;1.98;;;;;;;6.62;88.09;96989.16;4992163;28;20046;-54
2023/12/31 02:39:50;;;;;;;10.43;2.58;;;;;;;6.64;88.07;96979.34;4991373;28;20054;-50
2023/12/31 02:42:20;;;;;;;10.00;1.70;;;;;;;6.62;88.11;96978.97;4991886;28;20072;-55
2023/12/31 02:44:48;;;;;;;6.20;1.67;;;;;;;6.63;88.12;96977.00;4991788;28;20061;-50
2023/12/31 02:47:15;;;;;;;5.22;1.00;;;;;;;6.62;88.02;96973.47;4991642;28;20070;-50
2023/12/31 02:49:42;;;;;;;3.00;0.90;;;;;;;6.62;88.16;96978.97;4991738;28;20058;-51
2023/12/31 02:52:11;;;;;;;3.05;1.10;;;;;;;6.61;88.00;96963.69;4991933;28;20050;-48
2023/12/31 02:54:38;;;;;;;4.75;1.13;;;;;;;6.60;88.08;96956.59;4991743;28;20058;-51
2023/12/31 02:57:07;;;;;;;2.50;0.43;;;;;;;6.58;88.16;96956.25;4991159;28;20043;-52
2023/12/31 02:59:34;;;;;;;1.15;0.80;;;;;;;6.57;88.38;96968.41;4991341;28;20046;-50
2023/12/31 03:02:02;;;;;;;5.40;0.93;;;;;;;6.57;88.14;96971.16;5132364;22;20509;-46
2023/12/31 03:04:29;;;;;;;1.92;0.88;;;;;;;6.59;88.30;96957.03;5070724;28;20513;-46
2023/12/31 03:06:57;;;;;;;3.78;0.68;;;;;;;6.58;88.40;96953.50;5069995;28;20040;-48
2023/12/31 03:09:26;;;;;;;5.07;0.65;;;;;;;6.57;88.25;96943.69;5070943;28;20060;-50
2023/12/31 03:11:53;;;;;;;2.75;0.68;;;;;;;6.54;88.60;96941.75;5070254;28;20402;-49
2023/12/31 03:14:20;;;;;;;2.83;0.55;;;;;;;6.50;88.57;96943.78;5070287;28;20063;-51
2023/12/31 03:16:48;;;;;;;4.90;0.88;;;;;;;6.45;88.48;96944.22;5052330;28;20052;-50
2023/12/31 03:19:15;;;;;;;6.75;1.00;;;;;;;6.40;88.74;96941.94;5069614;28;20040;-46
2023/12/31 03:21:43;;;;;;;2.40;0.47;;;;;;;6.34;88.51;96951.81;5070350;28;20041;-53
2023/12/31 03:24:10;;;;;;;7.10;0.80;;;;;;;6.32;89.02;96940.47;5070475;28;20059;-48
2023/12/31 03:26:38;;;;;;;6.10;1.13;;;;;;;6.33;88.87;96941.25;5069756;28;20052;-49
2023/12/31 03:29:05;;;;;;;5.28;0.63;;;;;;;6.32;89.05;96923.19;5056831;28;20045;-48
2023/12/31 03:31:32;;;;;;;4.32;0.73;;;;;;;6.29;89.14;96929.50;5070348;28;20048;-54
2023/12/31 03:34:00;;;;;;;3.40;0.80;;;;;;;6.26;89.39;96924.81;5069335;28;20536;-48
2023/12/31 03:36:28;;;;;;;4.72;2.05;;;;;;;6.22;89.04;96922.13;5070543;28;20617;-47
2023/12/31 03:38:56;;;;;;;7.15;0.77;;;;;;;6.17;89.39;96921.81;5068611;28;20052;-47
2023/12/31 03:41:23;;;;;;;0.95;0.77;;;;;;;6.12;89.57;96923.00;5069802;28;20045;-46
2023/12/31 03:43:50;;;;;;;1.98;0.95;;;;;;;6.06;89.45;96917.19;5068829;28;20147;-50
2023/12/31 03:46:18;;;;;;;11.20;0.70;;;;;;;6.02;89.91;96910.97;5059420;28;20052;-47
2023/12/31 03:48:45;;;;;;;2.88;0.70;;;;;;;6.01;89.98;96908.63;5049315;28;20037;-48
2023/12/31 03:51:13;;;;;;;2.88;0.70;;;;;;;5.99;89.91;96908.25;5058394;28;20056;-47
2023/12/31 03:53:41;;;;;;;4.40;0.75;;;;;;;5.97;90.16;96913.38;5067990;28;20048;-50
2023/12/31 03:56:08;;;;;;;3.78;0.45;;;;;;;5.94;90.05;96905.94;5069871;28;20056;-46
2023/12/31 03:58:36;;;;;;;5.75;1.20;;;;;;;5.91;90.03;96898.50;5069534;28;20047;-46
2023/12/31 04:01:04;;;;;;;4.05;0.40;;;;;;;5.88;90.05;96907.56;5069571;28;20056;-50
2023/12/31 04:03:31;;;;;;;3.20;0.32;;;;;;;5.85;90.46;96894.69;5068629;28;20049;-48
2023/12/31 04:05:59;;;;;;;1.30;0.38;;;;;;;5.83;90.75;96886.03;5069076;28;20410;-49
2023/12/31 04:08:26;;;;;;;1.27;0.47;;;;;;;5.83;90.59;96892.28;5066843;28;20095;-47
2023/12/31 04:10:53;;;;;;;2.80;0.30;;;;;;;5.80;90.78;96890.34;5062262;28;20041;-47
2023/12/31 04:13:22;;;;;;;1.00;0.40;;;;;;;5.80;90.48;96897.84;5056640;28;20094;-48
2023/12/31 04:15:49;;;;;;;2.58;0.45;;;;;;;5.78;90.88;96894.69;5055684;28;20048;-50
2023/12/31 04:18:17;;;;;;;6.05;0.38;;;;;;;5.79;91.02;96893.53;5069377;28;20044;-48
2023/12/31 04:20:44;;;;;;;1.23;0.40;;;;;;;5.78;90.83;96883.72;5068612;28;20067;-51
2023/12/31 04:23:12;;;;;;;6.70;1.20;;;;;;;5.77;90.90;96887.66;5068868;28;20048;-48
2023/12/31 04:25:39;;;;;;;1.95;0.45;;;;;;;5.76;90.74;96886.09;5068804;28;20052;-52
2023/12/31 04:28:07;;;;;;;4.63;0.30;;;;;;;5.73;91.09;96897.88;5061095;28;20056;-48
2023/12/31 04:30:34;;;;;;;6.10;0.68;;;;;;;5.74;91.16;96893.97;5063764;28;20044;-50
2023/12/31 04:33:01;;;;;;;3.17;0.43;;;;;;;5.75;91.49;96901.00;5068817;28;20055;-47
2023/12/31 04:35:29;;;;;;;1.45;0.57;;;;;;;5.74;91.16;96903.00;5066862;28;20041;-46
2023/12/31 04:37:56;;;;;;;9.93;2.50;;;;;;;5.74;91.10;96894.75;5057956;28;20045;-50
2023/12/31 04:40:24;;;;;;;3.60;0.55;;;;;;;5.74;91.42;96899.47;5068626;28;20066;-46
2023/12/31 04:42:52;;;;;;;1.75;0.50;;;;;;;5.71;91.20;96897.53;5069234;28;20041;-48
2023/12/31 04:45:19;;;;;;;3.85;1.33;;;;;;;5.70;91.52;96899.47;5064699;28;20078;-50
2023/12/31 04:47:47;;;;;;;11.45;1.73;;;;;;;5.70;91.40;96899.47;5057585;28;20051;-51
2023/12/31 04:50:14;;;;;;;4.28;0.73;;;;;;;5.70;91.53;96898.69;5068435;28;21414;-51
2023/12/31 04:52:42;;;;;;;5.40;0.80;;;;;;;5.68;91.93;96887.34;5068399;28;20052;-49
2023/12/31 04:55:09;;;;;;;2.67;1.10;;;;;;;5.69;91.78;96897.16;5068349;28;20044;-49
2023/12/31 04:57:38;;;;;;;5.35;1.48;;;;;;;5.71;92.02;96889.28;5068920;28;20060;-48
2023/12/31 05:00:06;;;;;;;7.65;0.88;;;;;;;5.71;91.97;96883.81;5064488;28;20413;-47
2023/12/31 05:02:34;;;;;;;2.85;0.70;;;;;;;5.72;91.77;96882.63;5058618;28;20521;-50
2023/12/31 05:05:03;;;;;;;5.47;1.38;;;;;;;5.70;91.96;96883.00;5068248;28;20059;-48
2023/12/31 05:07:30;;;;;;;4.25;0.50;;;;;;;5.70;92.12;96874.78;5056785;28;20422;-50
2023/12/31 05:09:58;;;;;;;3.60;1.35;;;;;;;5.70;92.29;96871.25;5066594;28;20806;-46
2023/12/31 05:12:25;;;;;;;4.63;0.70;;;;;;;5.70;92.45;96876.75;5067760;28;20048;-48
2023/12/31 05:14:53;;;;;;;4.55;0.88;;;;;;;5.73;92.31;96875.94;5067869;28;20525;-48
2023/12/31 05:17:20;;;;;;;3.60;1.23;;;;;;;5.74;92.42;96874.75;5068277;28;20409;-47
2023/12/31 05:19:48;;;;;;;3.70;0.43;;;;;;;5.75;92.50;96865.31;5067621;28;20032;-50
2023/12/31 05:22:15;;;;;;;4.78;0.60;;;;;;;5.75;92.54;96863.34;5067665;28;20052;-46
2023/12/31 05:24:42;;;;;;;9.38;1.42;;;;;;;5.75;92.80;96859.84;5050310;28;20052;-51
2023/12/31 05:27:10;;;;;;;8.38;1.00;;;;;;;5.74;92.45;96866.53;5067825;28;20045;-48
2023/12/31 05:29:38;;;;;;;4.82;0.80;;;;;;;5.73;92.58;96873.97;5067634;28;20390;-51
2023/12/31 05:32:05;;;;;;;8.55;0.80;;;;;;;5.70;92.82;96871.25;5067513;28;20060;-45
2023/12/31 05:34:33;;;;;;;7.88;1.55;;;;;;;5.69;92.64;96864.22;5067679;28;20052;-49
2023/12/31 05:37:01;;;;;;;7.22;1.17;;;;;;;5.69;92.81;96853.25;5067341;28;20047;-51
2023/12/31 05:39:28;;;;;;;5.63;0.98;;;;;;;5.70;93.04;96865.75;5068155;28;20049;-46
2023/12/31 05:41:56;;;;;;;4.28;0.82;;;;;;;5.71;93.02;96861.84;5067537;28;20045;-47
2023/12/31 05:44:23;;;;;;;6.60;0.88;;;;;;;5.75;93.07;96873.56;5067747;28;20040;-49
2023/12/31 05:46:50;;;;;;;7.18;1.30;;;;;;;5.79;93.08;96879.81;5067677;28;20052;-49
2023/12/31 05:49:18;;;;;;;7.38;1.85;;;;;;;5.81;92.95;96872.72;5067337;28;20136;-48
2023/12/31 05:51:45;;;;;;;11.73;1.27;;;;;;;5.84;93.21;96873.88;5067632;28;20052;-47
2023/12/31 05:54:13;;;;;;;6.05;1.10;;;;;;;5.87;93.06;96870.34;5066687;28;20071;-52
2023/12/31 05:56:40;;;;;;;3.28;0.63;;;;;;;5.91;93.17;96862.84;5067621;28;20054;-50
2023/12/31 05:59:08;;;;;;;7.90;1.02;;;;;;;5.93;93.17;96868.72;5057391;28;20059;-46
2023/12/31 06:01:36;;;;;;;12.65;1.90;;;;;;;5.94;93.40;96864.75;5063818;28;20060;-46
2023/12/31 06:04:04;;;;;;;9.15;1.50;;;;;;;5.96;93.47;96862.38;5067523;28;20048;-49
2023/12/31 06:06:35;;;;;;;4.13;0.80;;;;;;;5.95;93.43;96861.63;5048864;28;20041;-47
2023/12/31 06:09:02;;;;;;;5.00;1.13;;;;;;;5.95;93.50;96850.66;5059798;28;20056;-54
2023/12/31 06:11:30;;;;;;;8.93;1.05;;;;;;;5.95;93.48;96860.84;5060701;28;20045;-55
2023/12/31 06:13:57;;;;;;;5.25;0.85;;;;;;;5.93;93.48;96857.72;5059137;28;20041;-51
2023/12/31 06:16:24;;;;;;;4.40;0.80;;;;;;;5.90;93.76;96858.53;5067221;28;20059;-48
2023/12/31 06:18:51;;;;;;;7.85;1.08;;;;;;;5.88;93.51;96855.41;5066412;28;20045;-48
2023/12/31 06:21:19;;;;;;;5.15;1.23;;;;;;;5.85;93.81;96857.00;5049468;28;20048;-50
2023/12/31 06:23:46;;;;;;;12.13;1.17;;;;;;;5.82;93.77;96854.28;5067176;28;20045;-48
2023/12/31 06:26:13;;;;;;;9.10;2.33;;;;;;;5.79;93.90;96850.41;5067315;28;20048;-50
2023/12/31 06:28:41;;;;;;;7.80;1.67;;;;;;;5.77;93.80;96849.25;5066825;28;20071;-49
2023/12/31 06:31:09;;;;;;;9.82;1.70;;;;;;;5.75;93.77;96854.34;5067035;28;21190;-48
2023/12/31 06:33:37;;;;;;;8.70;1.00;;;;;;;5.74;94.18;96844.56;5067103;28;20053;-46
2023/12/31 06:36:05;;;;;;;2.67;0.80;;;;;;;5.73;93.99;96848.50;5066946;28;20118;-46
2023/12/31 06:38:32;;;;;;;2.60;0.70;;;;;;;5.72;94.32;96847.69;5066929;28;20060;-54
2023/12/31 06:41:07;;;;;;;4.63;1.65;;;;;;;5.70;94.31;96841.06;5060043;28;20051;-45
2023/12/31 06:43:35;;;;;;;7.22;0.57;;;;;;;5.69;93.95;96839.53;5061792;28;20498;-46
2023/12/31 06:46:04;;;;;;;7.35;1.42;;;;;;;5.68;94.09;96840.72;5066403;28;20049;-48
2023/12/31 06:48:31;;;;;;;8.15;0.88;;;;;;;5.65;94.35;96841.50;5066954;28;20528;-47
2023/12/31 06:50:58;;;;;;;8.30;1.20;;;;;;;5.63;94.46;96839.19;5066804;28;20041;-47
2023/12/31 06:53:26;;;;;;;3.92;0.95;;;;;;;5.60;94.62;96834.50;5066699;28;20040;-51
2023/12/31 06:55:53;;;;;;;4.88;0.95;;;;;;;5.60;94.53;96820.78;5066540;28;20418;-49
2023/12/31 06:58:21;;;;;;;8.73;1.23;;;;;;;5.60;94.79;96830.97;5053397;28;20048;-46
2023/12/31 07:00:48;;;;;;;3.40;0.88;;;;;;;5.61;94.85;96824.31;5067065;28;20051;-51
2023/12/31 07:03:15;;;;;;;2.67;0.75;;;;;;;5.62;94.92;96820.38;5066425;28;20791;-47
2023/12/31 07:05:43;;;;;;;5.85;0.77;;;;;;;5.63;94.93;96827.44;5066515;28;20040;-48
2023/12/31 07:08:10;;;;;;;9.50;1.38;;;;;;;5.63;94.92;96813.72;5066712;28;20052;-49
2023/12/31 07:10:38;;;;;;;6.85;0.77;;;;;;;5.64;94.99;96809.78;5058192;28;20055;-49
2023/12/31 07:13:05;;;;;;;5.78;0.95;;;;;;;5.66;95.32;96821.13;5065459;28;20045;-51
2023/12/31 07:15:35;;;;;;;6.60;1.10;;;;;;;5.70;95.15;96817.16;5070148;28;20505;-49
2023/12/31 07:18:05;;;;;;;6.15;1.17;;;;;;;5.75;95.50;96832.38;5069915;28;20049;-47
2023/12/31 07:20:32;;;;;;;10.93;1.23;;;;;;;5.76;95.35;96820.25;5057467;28;20063;-50
2023/12/31 07:23:00;;;;;;;4.60;1.05;;;;;;;5.77;95.46;96825.31;5069541;28;20057;-50
2023/12/31 07:25:28;;;;;;;8.98;0.98;;;;;;;5.78;95.54;96823.34;5069778;28;20516;-51
2023/12/31 07:27:58;;;;;;;2.15;0.98;;;;;;;5.75;95.47;96824.94;5070513;28;20133;-47
2023/12/31 07:30:26;;;;;;;5.05;1.13;;;;;;;5.74;95.54;96837.13;5068379;28;20048;-47
2023/12/31 07:32:53;;;;;;;7.05;1.67;;;;;;;5.75;96.14;96829.66;5070331;28;20051;-46
2023/12/31 07:35:20;;;;;;;6.45;1.10;;;;;;;5.75;95.90;96840.63;5069822;28;20055;-49
2023/12/31 07:37:48;;;;;;;6.85;0.85;;;;;;;5.76;96.39;96831.22;5069684;28;20036;-50
2023/12/31 07:40:15;;;;;;;3.97;0.90;;;;;;;5.77;96.52;96827.28;5068576;28;20055;-49
2023/12/31 07:42:43;;;;;;;6.22;0.80;;;;;;;5.78;96.68;96828.84;5057704;28;20048;-46
2023/12/31 07:45:10;;;;;;;5.03;0.60;;;;;;;5.79;96.46;96831.19;5069976;28;20041;-50
2023/12/31 07:47:39;;;;;;;3.10;0.82;;;;;;;5.80;96.85;96826.47;5069639;28;20052;-51
2023/12/31 07:50:07;;;;;;;2.80;0.90;;;;;;;5.80;96.79;96826.47;5069476;28;20779;-49
2023/12/31 07:52:34;;;;;;;2.28;0.77;;;;;;;5.81;97.12;96833.50;5069772;28;20044;-47
2023/12/31 07:55:08;;;;;;;8.00;0.80;;;;;;;5.82;97.11;96830.38;5069965;28;20542;-46
2023/12/31 07:57:37;;;;;;;3.80;1.15;;;;;;;5.86;97.54;96824.84;5069887;28;20056;-46
2023/12/31 08:00:05;;;;;;;5.00;1.20;;;;;;;5.89;97.81;96830.31;5051509;28;20059;-47
2023/12/31 08:02:32;;;;;;;3.97;0.75;;;;;;;5.93;97.96;96824.78;5069481;28;20537;-48
2023/12/31 08:05:00;;;;;;;6.85;0.80;;;;;;;5.99;97.87;96828.63;5068931;28;20402;-47
2023/12/31 08:07:28;;;;;;;4.50;1.05;;;;;;;6.03;97.76;96818.41;5069779;28;20049;-45
2023/12/31 08:09:55;;;;;;;3.92;0.70;;;;;;;6.08;97.83;96823.44;5069282;28;20050;-48
2023/12/31 08:12:23;;;;;;;14.38;1.73;;;;;;;6.11;98.21;96830.84;5069305;28;20055;-46
2023/12/31 08:14:51;;;;;;;6.22;2.40;;;;;;;6.14;98.67;96830.03;5069072;28;20041;-46
2023/12/31 08:17:18;;;;;;;5.80;1.27;;;;;;;6.17;98.79;96826.44;5069069;28;20059;-47
2023/12/31 08:19:46;;;;;;;5.80;0.93;;;;;;;6.19;98.94;96824.09;5068772;28;20049;-48
2023/12/31 08:22:13;;;;;;;7.22;0.70;;;;;;;6.19;99.07;96826.81;5069037;28;20048;-45
2023/12/31 08:24:40;;;;;;;3.30;0.55;;;;;;;6.19;99.26;96821.34;5055027;28;20047;-53
2023/12/31 08:27:08;;;;;;;5.50;1.33;;;;;;;6.20;99.30;96819.34;5068920;28;20044;-49
2023/12/31 08:29:40;;;;;;;7.68;0.73;;;;;;;6.22;99.68;96830.72;5069564;28;20047;-45
2023/12/31 08:32:07;;;;;;;1.50;0.50;;;;;;;6.21;99.37;96824.44;5068357;28;20557;-46
2023/12/31 08:34:34;;;;;;;4.72;0.70;;;;;;;6.20;100.00;96825.63;5060693;28;20049;-48
2023/12/31 08:37:02;;;;;;;6.88;1.50;;;;;;;6.20;100.00;96833.84;5064103;28;20517;-45
2023/12/31 08:39:29;;;;;;;2.92;0.88;;;;;;;6.21;100.00;96834.66;5068383;28;20052;-49
2023/12/31 08:41:57;;;;;;;8.15;1.50;;;;;;;6.22;100.00;96830.72;5068405;28;20051;-45
2023/12/31 08:44:24;;;;;;;7.57;1.25;;;;;;;6.22;100.00;96826.00;5068895;28;20052;-48
2023/12/31 08:46:52;;;;;;;5.45;1.23;;;;;;;6.23;100.00;96824.81;5068677;28;20048;-47
2023/12/31 08:49:19;;;;;;;5.05;0.70;;;;;;;6.21;100.00;96835.44;5068492;28;20807;-45
2023/12/31 08:51:47;;;;;;;6.20;1.00;;;;;;;6.23;100.00;96833.03;5068481;28;20048;-50
2023/12/31 08:54:14;;;;;;;2.60;1.38;;;;;;;6.24;100.00;96823.63;5059481;28;20043;-51
2023/12/31 08:56:41;;;;;;;6.75;0.73;;;;;;;6.25;100.00;96832.66;5064295;28;20053;-50
2023/12/31 08:59:09;;;;;;;4.25;0.90;;;;;;;6.26;100.00;96837.72;5068411;28;20053;-50
2023/12/31 09:01:36;;;;;;;4.90;1.15;;;;;;;6.28;100.00;96851.03;5068023;28;20064;-53
2023/12/31 09:04:03;;;;;;;6.43;1.00;;;;;;;6.29;100.00;96847.09;5068378;28;20241;-49
2023/12/31 09:06:31;;;;;;;3.40;0.90;;;;;;;6.29;100.00;96842.38;5068157;28;20083;-50
2023/12/31 09:08:58;;;;;;;4.28;0.60;;;;;;;6.28;100.00;96846.31;5068107;28;20053;-49
2023/12/31 09:11:25;;;;;;;3.80;0.77;;;;;;;6.28;100.00;96868.28;5067889;28;20502;-50
2023/12/31 09:13:53;;;;;;;2.90;0.65;;;;;;;6.27;100.00;96861.25;5067977;28;20071;-51
2023/12/31 09:16:20;;;;;;;3.63;0.90;;;;;;;6.25;100.00;96874.59;5067950;28;20597;-48
2023/12/31 09:18:47;;;;;;;7.45;1.17;;;;;;;6.24;100.00;96873.06;5067583;28;20062;-49
2023/12/31 09:21:15;;;;;;;4.03;0.93;;;;;;;6.24;100.00;96869.53;5067506;28;20048;-46
2023/12/31 09:23:42;;;;;;;6.10;1.40;;;;;;;6.21;100.00;96900.56;5067746;28;20045;-48
2023/12/31 09:26:10;;;;;;;7.25;1.10;;;;;;;6.20;100.00;96902.53;5068057;28;20055;-46
2023/12/31 09:28:39;;;;;;;6.65;1.02;;;;;;;6.19;100.00;96892.75;5067865;28;20044;-46
2023/12/31 09:31:07;;;;;;;3.28;0.60;;;;;;;6.19;100.00;96902.94;5054591;28;20051;-47
2023/12/31 09:33:35;;;;;;;6.35;0.80;;;;;;;6.18;100.00;96907.66;5067783;28;20509;-45
2023/12/31 09:36:05;;;;;;;6.22;0.90;;;;;;;6.18;100.00;96906.88;5066872;28;20071;-49
2023/12/31 09:38:33;;;;;;;2.13;0.80;;;;;;;6.17;100.00;96906.06;5049002;28;20049;-48
2023/12/31 09:41:00;;;;;;;2.22;0.73;;;;;;;6.19;100.00;96925.69;5067713;28;20056;-47
2023/12/31 09:43:28;;;;;;;9.95;1.20;;;;;;;6.20;100.00;96915.47;5067613;28;20071;-49
2023/12/31 09:45:57;;;;;;;3.55;0.75;;;;;;;6.19;100.00;96931.19;5067209;28;20533;-46
2023/12/31 09:48:25;;;;;;;1.77;0.60;;;;;;;6.21;100.00;96917.03;5067343;28;20044;-46
2023/12/31 09:50:53;;;;;;;7.78;2.47;;;;;;;6.22;100.00;96927.63;5066942;28;20494;-46
2023/12/31 09:53:22;;;;;;;3.65;0.60;;;;;;;6.25;100.00;96954.25;5067141;28;20063;-48
2023/12/31 09:55:50;;;;;;;5.65;1.20;;;;;;;6.25;100.00;96956.25;5067294;28;20584;-48
2023/12/31 09:58:21;;;;;;;5.88;1.20;;;;;;;6.25;100.00;96956.25;5067193;28;20414;-49
2023/12/31 10:00:48;;;;;;;1.52;0.55;;;;;;;6.25;100.00;96970.72;5066375;28;20510;-48
2023/12/31 10:03:16;;;;;;;4.45;0.60;;;;;;;6.24;100.00;96963.69;5067162;28;20520;-51
2023/12/31 10:05:45;;;;;;;15.05;0.88;;;;;;;6.23;100.00;96975.84;5067217;28;20056;-52
2023/12/31 10:08:13;;;;;;;2.03;0.60;;;;;;;6.24;100.00;96980.19;5066668;28;20402;-51
2023/12/31 10:10:41;;;;;;;2.42;1.08;;;;;;;6.26;100.00;96968.75;5067177;28;20052;-53
2023/12/31 10:13:17;;;;;;;3.65;0.77;;;;;;;6.29;100.00;96979.72;5065248;28;20049;-53
2023/12/31 10:15:45;;;;;;;4.53;1.15;;;;;;;6.31;100.00;96982.06;5067006;28;20048;-52
2023/12/31 10:18:12;;;;;;;4.55;0.60;;;;;;;6.36;100.00;96978.84;5067390;28;20052;-49
2023/12/31 10:20:40;;;;;;;7.78;1.38;;;;;;;6.39;100.00;96987.06;5067095;28;20049;-52
2023/12/31 10:23:07;;;;;;;7.82;1.00;;;;;;;6.42;100.00;97005.50;5053947;28;20051;-55
2023/12/31 10:25:35;;;;;;;4.82;0.90;;;;;;;6.46;100.00;97008.22;5066577;28;20047;-52
2023/12/31 10:28:04;;;;;;;4.85;0.93;;;;;;;6.50;100.00;96995.19;5067451;28;20102;-50
2023/12/31 10:30:31;;;;;;;6.07;0.77;;;;;;;6.52;100.00;97021.06;5066870;28;20532;-50
2023/12/31 10:33:10;;;;;;;2.63;0.73;;;;;;;6.56;100.00;97024.59;5059885;28;20049;-49
2023/12/31 10:35:37;;;;;;;3.65;1.05;;;;;;;6.59;100.00;97007.25;5062494;28;20047;-49
2023/12/31 10:38:05;;;;;;;5.43;1.33;;;;;;;6.61;100.00;97015.88;5067146;28;20053;-48
2023/12/31 10:40:33;;;;;;;9.77;0.85;;;;;;;6.64;100.00;97006.03;5066475;28;20435;-49
2023/12/31 10:43:06;;;;;;;3.35;0.60;;;;;;;6.68;100.00;97015.00;5066774;28;20095;-51
2023/12/31 10:45:34;;;;;;;3.70;0.80;;;;;;;6.70;100.00;97021.66;5066350;28;20048;-48
2023/12/31 10:48:06;;;;;;;6.03;1.95;;;;;;;6.72;100.00;97030.28;5057145;28;20052;-49
2023/12/31 10:50:37;;;;;;;4.95;1.15;;;;;;;6.74;100.00;97044.41;5069908;28;20044;-51
2023/12/31 10:53:08;;;;;;;4.05;1.15;;;;;;;6.75;100.00;97043.19;5070426;28;20068;-45
2023/12/31 10:55:37;;;;;;;4.60;1.20;;;;;;;6.75;100.00;97051.44;5057789;28;20044;-47
2023/12/31 10:58:06;;;;;;;6.07;0.80;;;;;;;6.75;100.00;97056.19;5070293;28;20060;-50
2023/12/31 11:00:33;;;;;;;2.90;0.77;;;;;;;6.73;100.00;97047.53;5070919;28;20041;-49
2023/12/31 11:03:05;;;;;;;2.45;1.05;;;;;;;6.72;100.00;97046.75;5070304;28;20048;-49
2023/12/31 11:05:33;;;;;;;8.25;1.25;;;;;;;6.70;100.00;97057.38;5070492;28;20044;-47
2023/12/31 11:08:02;;;;;;;5.80;0.90;;;;;;;6.68;100.00;97056.25;5070329;28;20506;-49
2023/12/31 11:10:30;;;;;;;2.42;1.00;;;;;;;6.68;100.00;97070.78;5060621;28;20044;-51
2023/12/31 11:12:58;;;;;;;3.70;1.20;;;;;;;6.66;100.00;97075.91;5065920;28;20056;-48
2023/12/31 11:15:26;;;;;;;6.30;2.45;;;;;;;6.65;100.00;97071.59;5060943;28;20044;-50
2023/12/31 11:18:12;;;;;;;8.23;1.55;;;;;;;6.66;100.00;97091.59;5070113;28;20048;-48
2023/12/31 11:21:04;;;;;;;7.00;1.55;;;;;;;6.66;100.00;97084.16;5069915;28;20051;-47
2023/12/31 11:23:49;;;;;;;4.38;1.48;;;;;;;6.64;100.00;97100.28;5060825;28;20048;-49
2023/12/31 11:26:17;;;;;;;6.05;1.50;;;;;;;6.64;100.00;97122.25;5056252;28;20055;-49
2023/12/31 11:28:49;;;;;;;9.32;2.83;;;;;;;6.63;100.00;97126.19;5070038;28;20052;-48
2023/12/31 11:31:19;;;;;;;5.97;1.33;;;;;;;6.64;100.00;97132.47;5070435;28;20044;-48
2023/12/31 11:33:49;;;;;;;8.15;1.10;;;;;;;6.64;100.00;97147.00;5069882;28;20040;-52
2023/12/31 11:36:17;;;;;;;9.48;1.80;;;;;;;6.65;100.00;97150.50;5069333;28;20059;-49
2023/12/31 11:39:01;;;;;;;7.00;0.93;;;;;;;6.68;100.00;97166.97;5069432;28;20044;-53
2023/12/31 11:41:33;;;;;;;7.80;1.40;;;;;;;6.72;100.00;97164.97;5069676;28;20041;-50
2023/12/31 11:44:00;;;;;;;3.38;1.20;;;;;;;6.78;100.00;97170.03;5069920;28;20044;-48